createdAt,value
2022-12-24T00:01:06.705Z,10.23
2022-12-24T00:03:34.553Z,10.24
2022-12-24T00:06:10.362Z,10.21
2022-12-24T00:08:37.396Z,10.19
2022-12-24T00:11:04.594Z,10.12
2022-12-24T00:13:31.611Z,10.17
2022-12-24T00:15:59.072Z,10.12
2022-12-24T00:18:26.819Z,10.08
2022-12-24T00:20:54.333Z,9.94
2022-12-24T00:23:21.695Z,9.92
2022-12-24T00:25:48.801Z,9.89
2022-12-24T00:28:16.952Z,9.76
2022-12-24T00:30:44.141Z,9.63
2022-12-24T00:33:11.312Z,9.57
2022-12-24T00:35:40.549Z,9.50
2022-12-24T00:38:08.741Z,9.50
2022-12-24T00:40:35.922Z,9.38
2022-12-24T00:43:03.305Z,9.30
2022-12-24T00:45:30.471Z,9.21
2022-12-24T00:47:57.501Z,9.13
2022-12-24T00:50:24.684Z,9.21
2022-12-24T00:52:51.699Z,9.09
2022-12-24T00:55:18.712Z,9.13
2022-12-24T00:57:45.776Z,9.00
2022-12-24T01:00:13.311Z,9.03
2022-12-24T01:02:40.457Z,9.17
2022-12-24T01:05:10.404Z,9.26
2022-12-24T01:07:40.508Z,9.31
2022-12-24T01:10:09.564Z,9.28
2022-12-24T01:12:36.840Z,9.28
2022-12-24T01:15:05.178Z,9.15
2022-12-24T01:17:33.701Z,9.08
2022-12-24T01:20:01.157Z,8.84
2022-12-24T01:22:28.218Z,8.95
2022-12-24T01:24:55.277Z,8.92
2022-12-24T01:27:22.467Z,8.84
2022-12-24T01:29:49.595Z,8.89
2022-12-24T01:32:16.943Z,8.85
2022-12-24T01:34:44.214Z,8.79
2022-12-24T01:37:11.361Z,8.97
2022-12-24T01:39:38.518Z,8.79
2022-12-24T01:42:50.530Z,8.80
2022-12-24T01:45:44.774Z,8.84
2022-12-24T01:48:42.843Z,8.89
2022-12-24T01:51:28.463Z,8.95
2022-12-24T01:54:05.437Z,8.96
2022-12-24T01:56:35.419Z,8.89
2022-12-24T01:59:10.500Z,8.84
2022-12-24T02:01:38.794Z,8.88
2022-12-24T02:04:28.806Z,8.82
2022-12-24T02:06:55.892Z,8.93
2022-12-24T02:09:23.261Z,8.89
2022-12-24T02:11:50.433Z,8.83
2022-12-24T02:14:17.979Z,9.05
2022-12-24T02:17:06.322Z,8.99
2022-12-24T02:20:04.427Z,8.91
2022-12-24T02:22:47.584Z,8.79
2022-12-24T02:25:32.906Z,8.76
2022-12-24T02:28:30.963Z,8.62
2022-12-24T02:31:05.688Z,8.57
2022-12-24T02:33:48.394Z,8.52
2022-12-24T02:36:29.274Z,8.40
2022-12-24T02:39:06.079Z,8.45
2022-12-24T02:42:08.609Z,8.22
2022-12-24T02:44:52.674Z,8.26
2022-12-24T02:47:24.600Z,8.40
2022-12-24T02:49:51.668Z,8.22
2022-12-24T02:52:32.638Z,8.26
2022-12-24T02:55:04.422Z,8.16
2022-12-24T02:58:00.350Z,8.15
2022-12-24T03:00:52.714Z,8.39
2022-12-24T03:03:22.716Z,8.38
2022-12-24T03:06:09.272Z,8.33
2022-12-24T03:09:05.673Z,8.46
2022-12-24T03:11:38.612Z,8.57
2022-12-24T03:14:06.050Z,8.63
2022-12-24T03:16:33.530Z,8.69
2022-12-24T03:19:01.125Z,8.70
2022-12-24T03:21:34.649Z,8.82
2022-12-24T03:24:02.543Z,8.70
2022-12-24T03:26:33.782Z,8.72
2022-12-24T03:29:06.575Z,8.64
2022-12-24T03:32:00.831Z,8.64
2022-12-24T03:34:27.972Z,8.70
2022-12-24T03:36:55.568Z,8.56
2022-12-24T03:39:23.083Z,8.43
2022-12-24T03:41:50.131Z,8.38
2022-12-24T03:44:17.120Z,8.34
2022-12-24T03:46:44.175Z,8.55
2022-12-24T03:49:11.213Z,8.77
2022-12-24T03:51:38.245Z,8.80
2022-12-24T03:54:05.316Z,8.88
2022-12-24T03:56:32.399Z,8.94
2022-12-24T03:58:59.450Z,9.03
2022-12-24T04:01:26.530Z,9.13
2022-12-24T04:03:53.638Z,9.15
2022-12-24T04:06:20.657Z,9.29
2022-12-24T04:08:47.724Z,9.34
2022-12-24T04:11:16.956Z,9.30
2022-12-24T04:13:44.244Z,9.37
2022-12-24T04:16:15.336Z,9.38
2022-12-24T04:18:43.088Z,9.34
2022-12-24T04:21:11.608Z,9.37
2022-12-24T04:23:41.519Z,9.42
2022-12-24T04:26:11.764Z,9.38
2022-12-24T04:28:40.339Z,9.42
2022-12-24T04:31:17.978Z,9.43
2022-12-24T04:33:46.112Z,9.45
2022-12-24T04:36:17.396Z,9.44
2022-12-24T04:38:45.749Z,9.53
2022-12-24T04:41:24.203Z,9.50
2022-12-24T04:43:55.552Z,9.49
2022-12-24T04:46:25.918Z,9.50
2022-12-24T04:48:54.312Z,9.49
2022-12-24T04:51:21.983Z,9.56
2022-12-24T04:53:49.548Z,9.57
2022-12-24T04:56:22.749Z,9.61
2022-12-24T04:58:50.271Z,9.58
2022-12-24T05:01:21.320Z,9.62
2022-12-24T05:03:48.470Z,9.61
2022-12-24T05:06:19.370Z,9.57
2022-12-24T05:08:46.779Z,9.55
2022-12-24T05:11:15.673Z,9.56
2022-12-24T05:13:47.392Z,9.51
2022-12-24T05:16:17.049Z,9.53
2022-12-24T05:18:44.254Z,9.47
2022-12-24T05:21:15.160Z,9.45
2022-12-24T05:24:01.825Z,9.40
2022-12-24T05:26:37.261Z,9.20
2022-12-24T05:29:05.671Z,9.12
2022-12-24T05:31:33.581Z,9.30
2022-12-24T05:34:01.500Z,9.34
2022-12-24T05:36:29.269Z,9.33
2022-12-24T05:38:56.265Z,9.44
2022-12-24T05:41:23.685Z,9.47
2022-12-24T05:43:51.125Z,9.50
2022-12-24T05:46:21.482Z,9.49
2022-12-24T05:48:50.182Z,9.49
2022-12-24T05:51:19.954Z,9.44
2022-12-24T05:53:47.614Z,9.47
2022-12-24T05:56:18.383Z,9.40
2022-12-24T05:58:46.459Z,9.30
2022-12-24T06:01:14.627Z,9.43
2022-12-24T06:03:41.922Z,9.37
2022-12-24T06:06:12.766Z,9.38
2022-12-24T06:08:41.269Z,9.38
2022-12-24T06:11:12.179Z,9.46
2022-12-24T06:13:41.276Z,9.43
2022-12-24T06:16:12.634Z,9.40
2022-12-24T06:18:39.772Z,9.43
2022-12-24T06:21:07.164Z,9.51
2022-12-24T06:23:37.008Z,9.61
2022-12-24T06:26:06.437Z,9.58
2022-12-24T06:28:36.404Z,9.60
2022-12-24T06:31:06.075Z,9.65
2022-12-24T06:33:34.902Z,9.59
2022-12-24T06:36:02.377Z,9.56
2022-12-24T06:38:32.492Z,9.69
2022-12-24T06:40:59.711Z,9.55
2022-12-24T06:43:26.749Z,9.36
2022-12-24T06:45:53.757Z,9.25
2022-12-24T06:48:20.816Z,9.21
2022-12-24T06:50:48.300Z,9.09
2022-12-24T06:53:15.309Z,8.98
2022-12-24T06:55:42.331Z,8.81
2022-12-24T06:58:09.433Z,8.96
2022-12-24T07:00:36.624Z,8.99
2022-12-24T07:03:03.627Z,8.99
2022-12-24T07:05:30.816Z,8.95
2022-12-24T07:07:57.822Z,8.93
2022-12-24T07:10:24.833Z,8.93
2022-12-24T07:12:51.835Z,8.89
2022-12-24T07:15:18.834Z,8.79
2022-12-24T07:17:45.934Z,8.78
2022-12-24T07:20:15.048Z,8.80
2022-12-24T07:22:42.827Z,8.77
2022-12-24T07:25:11.026Z,8.65
2022-12-24T07:27:38.857Z,8.63
2022-12-24T07:30:06.739Z,8.78
2022-12-24T07:32:33.996Z,8.83
2022-12-24T07:35:01.037Z,8.91
2022-12-24T07:37:28.114Z,9.12
2022-12-24T07:39:55.124Z,9.16
2022-12-24T07:42:22.191Z,9.18
2022-12-24T07:44:49.390Z,9.20
2022-12-24T07:47:16.497Z,9.27
2022-12-24T07:49:43.512Z,9.31
2022-12-24T07:52:10.522Z,9.34
2022-12-24T07:54:37.575Z,9.31
2022-12-24T07:57:04.622Z,9.28
2022-12-24T07:59:31.612Z,9.28
2022-12-24T08:01:58.813Z,9.16
2022-12-24T08:04:25.976Z,9.30
2022-12-24T08:06:53.003Z,9.35
2022-12-24T08:09:20.155Z,9.38
2022-12-24T08:11:52.026Z,9.40
2022-12-24T08:14:19.820Z,9.40
2022-12-24T08:16:47.084Z,9.43
2022-12-24T08:19:14.218Z,9.36
2022-12-24T08:21:41.401Z,9.36
2022-12-24T08:24:08.584Z,9.44
2022-12-24T08:26:35.719Z,9.43
2022-12-24T08:29:04.121Z,9.52
2022-12-24T08:31:36.323Z,9.53
2022-12-24T08:34:07.639Z,9.49
2022-12-24T08:36:35.390Z,9.49
2022-12-24T08:39:11.001Z,9.49
2022-12-24T08:41:38.199Z,9.56
2022-12-24T08:44:05.293Z,9.53
2022-12-24T08:46:32.369Z,9.53
2022-12-24T08:48:59.454Z,9.59
2022-12-24T08:51:26.467Z,9.63
2022-12-24T08:53:53.500Z,9.70
2022-12-24T08:56:20.623Z,9.75
2022-12-24T08:58:48.759Z,9.81
2022-12-24T09:01:18.828Z,9.85
2022-12-24T09:03:46.443Z,9.83
2022-12-24T09:06:14.198Z,9.87
2022-12-24T09:08:41.234Z,9.90
2022-12-24T09:11:14.808Z,9.92
2022-12-24T09:13:44.476Z,9.96
2022-12-24T09:16:13.038Z,10.05
2022-12-24T09:18:40.173Z,10.13
2022-12-24T09:21:17.484Z,10.22
2022-12-24T09:23:47.018Z,10.29
2022-12-24T09:26:18.928Z,10.29
2022-12-24T09:28:47.155Z,10.24
2022-12-24T09:31:15.184Z,10.27
2022-12-24T09:33:45.433Z,10.29
2022-12-24T09:36:12.979Z,10.32
2022-12-24T09:38:40.354Z,10.26
2022-12-24T09:41:13.377Z,10.16
2022-12-24T09:43:47.937Z,10.11
2022-12-24T09:46:35.809Z,10.12
2022-12-24T09:49:10.590Z,10.18
2022-12-24T09:51:55.530Z,10.19
2022-12-24T09:54:30.387Z,10.26
2022-12-24T09:57:06.303Z,10.32
2022-12-24T09:59:46.306Z,10.30
2022-12-24T10:02:17.311Z,10.36
2022-12-24T10:04:46.995Z,10.54
2022-12-24T10:07:40.937Z,10.60
2022-12-24T10:10:44.292Z,10.79
2022-12-24T10:13:26.677Z,10.86
2022-12-24T10:16:06.650Z,10.77
2022-12-24T10:18:51.754Z,10.84
2022-12-24T10:21:35.703Z,10.88
2022-12-24T10:24:29.747Z,11.00
2022-12-24T10:27:03.007Z,11.22
2022-12-24T10:29:39.348Z,11.27
2022-12-24T10:32:28.429Z,11.16
2022-12-24T10:35:02.167Z,11.20
2022-12-24T10:37:30.621Z,11.36
2022-12-24T10:40:00.000Z,11.23
2022-12-24T10:42:48.390Z,11.16
2022-12-24T10:45:22.642Z,11.35
2022-12-24T10:47:59.932Z,11.12
2022-12-24T10:50:36.845Z,11.11
2022-12-24T10:53:19.190Z,11.07
2022-12-24T10:55:48.264Z,11.07
2022-12-24T10:58:20.248Z,10.85
2022-12-24T11:00:52.703Z,10.82
2022-12-24T11:03:29.231Z,10.95
2022-12-24T11:06:08.263Z,11.15
2022-12-24T11:08:38.472Z,10.94
2022-12-24T11:11:09.195Z,11.09
2022-12-24T11:13:41.545Z,11.47
2022-12-24T11:16:35.463Z,11.65
2022-12-24T11:19:06.167Z,11.28
2022-12-24T11:21:40.804Z,11.24
2022-12-24T11:24:13.471Z,11.19
2022-12-24T11:26:42.845Z,11.29
2022-12-24T11:29:21.613Z,11.42
2022-12-24T11:31:50.163Z,11.25
2022-12-24T11:34:32.777Z,11.52
2022-12-24T11:37:21.232Z,11.61
2022-12-24T11:39:54.896Z,11.41
2022-12-24T11:42:40.677Z,11.57
2022-12-24T11:45:21.329Z,11.50
2022-12-24T11:47:48.334Z,11.26
2022-12-24T11:50:35.305Z,11.29
2022-12-24T11:53:16.812Z,11.30
2022-12-24T11:55:55.572Z,11.55
2022-12-24T11:58:44.564Z,11.55
2022-12-24T12:01:22.513Z,11.35
2022-12-24T12:03:57.465Z,11.34
2022-12-24T12:06:44.479Z,11.33
2022-12-24T12:09:37.623Z,11.47
2022-12-24T12:12:15.602Z,11.58
2022-12-24T12:14:57.226Z,11.48
2022-12-24T12:17:35.015Z,11.42
2022-12-24T12:20:05.292Z,11.31
2022-12-24T12:22:57.463Z,11.16
2022-12-24T12:25:43.945Z,11.15
2022-12-24T12:28:22.049Z,11.06
2022-12-24T12:31:16.353Z,11.00
2022-12-24T12:33:52.789Z,11.02
2022-12-24T12:36:36.121Z,11.07
2022-12-24T12:39:06.103Z,11.06
2022-12-24T12:41:50.607Z,11.17
2022-12-24T12:44:32.560Z,11.21
2022-12-24T12:47:23.982Z,11.20
2022-12-24T12:49:53.891Z,11.36
2022-12-24T12:52:29.588Z,11.43
2022-12-24T12:55:05.368Z,11.74
2022-12-24T12:57:37.349Z,11.87
2022-12-24T13:00:06.498Z,11.80
2022-12-24T13:03:10.781Z,11.64
2022-12-24T13:05:49.813Z,11.62
2022-12-24T13:08:50.944Z,11.59
2022-12-24T13:11:32.774Z,11.63
2022-12-24T13:14:21.212Z,11.49
2022-12-24T13:17:19.589Z,11.41
2022-12-24T13:20:11.917Z,11.26
2022-12-24T13:22:39.017Z,11.11
2022-12-24T13:25:06.641Z,10.95
2022-12-24T13:27:35.598Z,10.88
2022-12-24T13:30:09.628Z,11.00
2022-12-24T13:32:50.062Z,11.02
2022-12-24T13:35:19.785Z,11.05
2022-12-24T13:37:48.244Z,11.00
2022-12-24T13:40:15.722Z,10.98
2022-12-24T13:43:07.391Z,10.73
2022-12-24T13:45:43.175Z,10.53
2022-12-24T13:48:10.196Z,10.53
2022-12-24T13:50:46.010Z,10.58
2022-12-24T13:53:30.424Z,10.54
2022-12-24T13:56:12.824Z,10.59
2022-12-24T13:58:51.238Z,10.63
2022-12-24T14:01:34.879Z,10.57
2022-12-24T14:04:07.989Z,10.63
2022-12-24T14:06:40.821Z,10.62
2022-12-24T14:09:18.897Z,10.44
2022-12-24T14:12:01.131Z,10.48
2022-12-24T14:14:41.419Z,10.58
2022-12-24T14:17:30.794Z,10.63
2022-12-24T14:20:00.643Z,10.45
2022-12-24T14:22:37.113Z,10.38
2022-12-24T14:25:16.307Z,10.41
2022-12-24T14:27:47.344Z,10.50
2022-12-24T14:30:21.413Z,10.54
2022-12-24T14:32:50.517Z,10.50
2022-12-24T14:35:21.517Z,10.47
2022-12-24T14:37:57.143Z,10.38
2022-12-24T14:40:34.022Z,10.26
2022-12-24T14:43:19.390Z,10.16
2022-12-24T14:46:08.903Z,10.10
2022-12-24T14:48:52.578Z,9.97
2022-12-24T14:51:54.928Z,9.83
2022-12-24T14:54:36.874Z,9.80
2022-12-24T14:57:24.664Z,9.68
2022-12-24T15:00:02.272Z,9.62
2022-12-24T15:02:51.753Z,9.38
2022-12-24T15:05:28.891Z,9.40
2022-12-24T15:08:11.076Z,9.19
2022-12-24T15:10:44.900Z,9.12
2022-12-24T15:13:23.899Z,9.08
2022-12-24T15:15:54.259Z,8.93
2022-12-24T15:18:29.579Z,8.86
2022-12-24T15:21:04.375Z,8.82
2022-12-24T15:23:35.314Z,8.74
2022-12-24T15:26:20.547Z,8.70
2022-12-24T15:28:47.456Z,8.56
2022-12-24T15:31:18.194Z,8.50
2022-12-24T15:33:46.950Z,8.49
2022-12-24T15:36:16.263Z,8.55
2022-12-24T15:38:47.255Z,8.63
2022-12-24T15:41:25.358Z,8.52
2022-12-24T15:43:54.643Z,8.39
2022-12-24T15:46:26.042Z,8.46
2022-12-24T15:48:56.317Z,8.41
2022-12-24T15:51:28.747Z,8.37
2022-12-24T15:54:06.079Z,8.31
2022-12-24T15:56:36.904Z,8.17
2022-12-24T15:59:15.946Z,8.14
2022-12-24T16:01:44.161Z,8.14
2022-12-24T16:04:27.489Z,8.10
2022-12-24T16:07:01.941Z,8.02
2022-12-24T16:09:43.822Z,8.05
2022-12-24T16:12:22.409Z,7.95
2022-12-24T16:14:58.947Z,8.00
2022-12-24T16:17:34.058Z,7.85
2022-12-24T16:20:07.352Z,7.89
2022-12-24T16:22:39.795Z,7.78
2022-12-24T16:25:23.099Z,7.80
2022-12-24T16:27:50.816Z,7.65
2022-12-24T16:30:19.746Z,7.52
2022-12-24T16:32:51.009Z,7.59
2022-12-24T16:35:28.379Z,7.52
2022-12-24T16:37:57.872Z,7.49
2022-12-24T16:40:27.940Z,7.47
2022-12-24T16:43:18.849Z,7.42
2022-12-24T16:45:50.872Z,7.46
2022-12-24T16:48:22.370Z,7.45
2022-12-24T16:50:51.985Z,7.54
2022-12-24T16:53:21.419Z,7.49
2022-12-24T16:55:51.119Z,7.50
2022-12-24T16:58:19.552Z,7.35
2022-12-24T17:00:46.931Z,7.30
2022-12-24T17:03:14.644Z,7.24
2022-12-24T17:05:43.500Z,7.19
2022-12-24T17:08:12.444Z,7.17
2022-12-24T17:10:40.417Z,7.16
2022-12-24T17:13:10.208Z,7.10
2022-12-24T17:15:41.927Z,7.11
2022-12-24T17:18:09.104Z,7.12
2022-12-24T17:20:36.223Z,7.03
2022-12-24T17:23:03.750Z,7.05
2022-12-24T17:25:30.584Z,7.01
2022-12-24T17:27:57.690Z,7.10
2022-12-24T17:30:24.795Z,7.06
2022-12-24T17:32:52.051Z,7.02
2022-12-24T17:35:19.082Z,7.08
2022-12-24T17:37:46.156Z,6.97
2022-12-24T17:40:13.308Z,6.92
2022-12-24T17:42:40.339Z,6.90
2022-12-24T17:45:07.669Z,6.94
2022-12-24T17:47:34.734Z,6.91
2022-12-24T17:50:01.781Z,6.86
2022-12-24T17:52:28.813Z,6.85
2022-12-24T17:54:55.747Z,6.85
2022-12-24T17:57:22.920Z,6.85
2022-12-24T17:59:49.857Z,6.83
2022-12-24T18:02:17.133Z,6.74
2022-12-24T18:04:44.290Z,6.65
2022-12-24T18:07:11.206Z,6.55
2022-12-24T18:09:38.161Z,6.47
2022-12-24T18:12:05.731Z,6.43
2022-12-24T18:14:32.859Z,6.36
2022-12-24T18:16:59.911Z,6.33
2022-12-24T18:19:27.024Z,6.28
2022-12-24T18:21:54.084Z,6.28
2022-12-24T18:24:21.003Z,6.26
2022-12-24T18:26:48.467Z,6.29
2022-12-24T18:29:17.450Z,6.20
2022-12-24T18:31:44.486Z,6.13
2022-12-24T18:34:13.767Z,6.02
2022-12-24T18:36:41.020Z,5.97
2022-12-24T18:39:08.072Z,5.88
2022-12-24T18:41:35.877Z,5.89
2022-12-24T18:44:03.141Z,5.88
2022-12-24T18:46:32.864Z,5.97
2022-12-24T18:49:01.249Z,6.04
2022-12-24T18:51:35.315Z,6.13
2022-12-24T18:54:06.277Z,6.08
2022-12-24T18:56:33.336Z,6.04
2022-12-24T18:59:02.627Z,5.99
2022-12-24T19:01:32.435Z,5.96
2022-12-24T19:04:00.140Z,5.91
2022-12-24T19:06:27.206Z,5.84
2022-12-24T19:09:00.230Z,5.81
2022-12-24T19:11:31.482Z,5.74
2022-12-24T19:13:58.941Z,5.70
2022-12-24T19:16:27.305Z,5.62
2022-12-24T19:18:54.411Z,5.54
2022-12-24T19:21:21.391Z,5.57
2022-12-24T19:23:48.920Z,5.58
2022-12-24T19:26:18.002Z,5.57
2022-12-24T19:28:45.979Z,5.57
2022-12-24T19:31:16.140Z,5.64
2022-12-24T19:33:46.749Z,5.64
2022-12-24T19:36:17.124Z,5.70
2022-12-24T19:38:44.587Z,5.71
2022-12-24T19:41:16.659Z,5.75
2022-12-24T19:43:47.032Z,5.82
2022-12-24T19:46:17.379Z,5.90
2022-12-24T19:48:51.551Z,6.11
2022-12-24T19:51:18.625Z,6.25
2022-12-24T19:53:47.577Z,6.31
2022-12-24T19:56:20.636Z,6.32
2022-12-24T19:58:48.761Z,6.38
2022-12-24T20:01:19.902Z,6.36
2022-12-24T20:03:48.090Z,6.32
2022-12-24T20:06:16.765Z,6.38
2022-12-24T20:08:44.260Z,6.43
2022-12-24T20:11:16.309Z,6.51
2022-12-24T20:13:43.932Z,6.70
2022-12-24T20:16:17.719Z,6.79
2022-12-24T20:18:44.879Z,6.87
2022-12-24T20:21:13.052Z,6.89
2022-12-24T20:23:40.837Z,6.93
2022-12-24T20:26:11.737Z,6.97
2022-12-24T20:28:39.580Z,7.03
2022-12-24T20:31:33.008Z,7.02
2022-12-24T20:34:02.227Z,7.05
2022-12-24T20:36:31.660Z,7.09
2022-12-24T20:38:59.179Z,7.12
2022-12-24T20:41:28.675Z,7.13
2022-12-24T20:43:58.550Z,7.07
2022-12-24T20:46:26.473Z,7.04
2022-12-24T20:48:55.407Z,7.01
2022-12-24T20:51:25.754Z,6.97
2022-12-24T20:53:55.553Z,6.96
2022-12-24T20:56:22.740Z,6.91
2022-12-24T20:58:50.160Z,6.91
2022-12-24T21:01:26.929Z,6.89
2022-12-24T21:03:55.803Z,6.88
2022-12-24T21:06:24.410Z,6.89
2022-12-24T21:08:53.501Z,7.02
2022-12-24T21:11:40.549Z,6.98
2022-12-24T21:14:07.734Z,7.05
2022-12-24T21:16:36.862Z,7.14
2022-12-24T21:19:05.250Z,7.17
2022-12-24T21:21:33.345Z,7.11
2022-12-24T21:24:00.551Z,7.13
2022-12-24T21:26:27.621Z,7.20
2022-12-24T21:28:54.631Z,7.14
2022-12-24T21:31:21.650Z,7.14
2022-12-24T21:33:48.747Z,7.09
2022-12-24T21:36:16.531Z,7.03
2022-12-24T21:38:43.378Z,7.14
2022-12-24T21:41:14.316Z,7.07
2022-12-24T21:43:42.485Z,7.03
2022-12-24T21:46:17.329Z,7.08
2022-12-24T21:49:03.924Z,7.00
2022-12-24T21:51:31.026Z,6.91
2022-12-24T21:54:16.777Z,6.94
2022-12-24T21:57:02.121Z,7.05
2022-12-24T21:59:29.028Z,6.99
2022-12-24T22:01:57.855Z,7.06
2022-12-24T22:04:25.425Z,7.05
2022-12-24T22:07:11.337Z,7.06
2022-12-24T22:09:57.778Z,7.01
2022-12-24T22:12:30.134Z,6.96
2022-12-24T22:14:57.244Z,6.97
2022-12-24T22:17:25.739Z,6.97
2022-12-24T22:19:56.292Z,7.01
2022-12-24T22:22:24.074Z,7.05
2022-12-24T22:24:51.245Z,6.99
2022-12-24T22:27:18.230Z,6.91
2022-12-24T22:29:45.208Z,6.82
2022-12-24T22:32:12.242Z,6.80
2022-12-24T22:34:39.258Z,6.71
2022-12-24T22:37:06.216Z,6.64
2022-12-24T22:39:33.264Z,6.67
2022-12-24T22:42:00.297Z,6.62
2022-12-24T22:44:27.360Z,6.62
2022-12-24T22:46:54.201Z,6.49
2022-12-24T22:49:21.056Z,6.40
2022-12-24T22:51:48.092Z,6.29
2022-12-24T22:54:15.850Z,6.30
2022-12-24T22:56:43.051Z,6.19
2022-12-24T22:59:13.442Z,6.32
2022-12-24T23:01:43.445Z,6.24
2022-12-24T23:04:11.670Z,6.27
2022-12-24T23:06:39.786Z,6.23
2022-12-24T23:09:09.143Z,6.25
2022-12-24T23:11:36.239Z,6.36
2022-12-24T23:14:21.688Z,6.23
2022-12-24T23:16:48.697Z,6.32
2022-12-24T23:19:16.219Z,6.22
2022-12-24T23:21:43.226Z,6.13
2022-12-24T23:24:11.169Z,6.19
2022-12-24T23:26:38.630Z,6.32
2022-12-24T23:29:06.503Z,6.22
2022-12-24T23:31:34.726Z,6.14
2022-12-24T23:34:02.133Z,6.14
2022-12-24T23:36:29.840Z,6.09
2022-12-24T23:38:57.517Z,6.05
2022-12-24T23:41:24.619Z,6.02
2022-12-24T23:43:51.548Z,6.16
2022-12-24T23:46:20.173Z,6.11
2022-12-24T23:48:48.082Z,6.13
2022-12-24T23:51:18.986Z,6.13
2022-12-24T23:53:46.044Z,6.12
2022-12-24T23:56:13.906Z,6.21
2022-12-24T23:58:42.808Z,6.43
